Time,TemperatureF,DewpointF,PressureIn,WindDirection,WindDirectionDegrees,WindSpeedMPH,WindSpeedGustMPH,Humidity,HourlyPrecipIn,Conditions,Clouds,dailyrainin,SoftwareType,DateUTC
2013-05-18 00:00:00,56.4,42.7,30.13,NW,325,0.0,0.0,60,0.00,,,0.00,Wunderground v.1.15,2013-05-18 07:00:00,
2013-05-18 00:05:00,56.5,42.8,30.13,NW,312,0.0,4.0,60,0.00,,,0.00,Wunderground v.1.15,2013-05-18 07:05:00,
2013-05-18 00:15:00,56.4,42.7,30.13,NW,310,0.0,4.0,60,0.00,,,0.00,Wunderground v.1.15,2013-05-18 07:15:00,
2013-05-18 00:20:00,56.2,42.5,30.13,NW,310,0.0,4.0,60,0.00,,,0.00,Wunderground v.1.15,2013-05-18 07:20:00,
2013-05-18 00:30:00,55.7,42.0,30.13,NW,310,0.0,4.0,60,0.00,,,0.00,Wunderground v.1.15,2013-05-18 07:30:00,
2013-05-18 00:40:00,55.2,41.5,30.14,NW,310,0.0,3.0,60,0.00,,,0.00,Wunderground v.1.15,2013-05-18 07:40:00,
2013-05-18 00:45:00,55.2,42.0,30.14,NW,310,0.0,3.0,61,0.00,,,0.00,Wunderground v.1.15,2013-05-18 07:45:00,
2013-05-18 00:50:00,55.3,42.1,30.14,NW,310,0.0,3.0,61,0.00,,,0.00,Wunderground v.1.15,2013-05-18 07:50:00,
2013-05-18 01:00:00,55.1,42.3,30.14,NW,310,0.0,3.0,62,0.00,,,0.00,Wunderground v.1.15,2013-05-18 08:00:00,
2013-05-18 01:05:00,55.2,42.0,30.13,NW,310,0.0,3.0,61,0.00,,,0.00,Wunderground v.1.15,2013-05-18 08:05:00,
2013-05-18 01:10:00,54.9,41.7,30.14,NW,310,0.0,0.0,61,0.00,,,0.00,Wunderground v.1.15,2013-05-18 08:10:00,
2013-05-18 01:20:00,54.5,41.7,30.13,NW,310,0.0,0.0,62,0.00,,,0.00,Wunderground v.1.15,2013-05-18 08:20:00,
2013-05-18 01:25:00,54.3,41.6,30.13,NW,310,0.0,0.0,62,0.00,,,0.00,Wunderground v.1.15,2013-05-18 08:25:00,
2013-05-18 01:30:00,54.1,41.4,30.13,NW,310,0.0,0.0,62,0.00,,,0.00,Wunderground v.1.15,2013-05-18 08:30:00,
2013-05-18 01:35:00,53.9,41.2,30.14,NW,310,0.0,0.0,62,0.00,,,0.00,Wunderground v.1.15,2013-05-18 08:35:00,
2013-05-18 01:45:00,53.5,39.9,30.13,NW,310,0.0,0.0,60,0.00,,,0.00,Wunderground v.1.15,2013-05-18 08:45:00,
2013-05-18 01:50:00,53.5,39.9,30.14,NW,310,0.0,0.0,60,0.00,,,0.00,Wunderground v.1.15,2013-05-18 08:50:00,
2013-05-18 01:55:00,53.3,39.8,30.13,NW,310,0.0,0.0,60,0.00,,,0.00,Wunderground v.1.15,2013-05-18 08:55:00,
2013-05-18 02:05:00,52.8,40.1,30.13,NW,310,0.0,0.0,62,0.00,,,0.00,Wunderground v.1.15,2013-05-18 09:05:00,
2013-05-18 02:15:00,52.7,40.5,30.13,NW,310,0.0,0.0,63,0.00,,,0.00,Wunderground v.1.15,2013-05-18 09:15:00,
2013-05-18 02:20:00,53.2,40.1,30.13,NW,310,0.0,0.0,61,0.00,,,0.00,Wunderground v.1.15,2013-05-18 09:20:00,
2013-05-18 02:30:00,53.8,39.4,30.13,WNW,289,1.0,1.0,58,0.00,,,0.00,Wunderground v.1.15,2013-05-18 09:30:00,
2013-05-18 02:35:00,54.1,39.2,30.13,WNW,287,1.0,5.0,57,0.00,,,0.00,Wunderground v.1.15,2013-05-18 09:35:00,
2013-05-18 02:45:00,54.5,38.7,30.13,WNW,287,0.0,5.0,55,0.00,,,0.00,Wunderground v.1.15,2013-05-18 09:45:00,
2013-05-18 02:50:00,54.0,38.2,30.12,West,269,1.0,5.0,55,0.00,,,0.00,Wunderground v.1.15,2013-05-18 09:50:00,
2013-05-18 03:00:00,54.5,38.2,30.13,West,269,1.0,1.0,54,0.00,,,0.00,Wunderground v.1.15,2013-05-18 10:00:00,
2013-05-18 03:10:00,54.1,37.8,30.13,WNW,283,2.0,2.0,54,0.00,,,0.00,Wunderground v.1.15,2013-05-18 10:10:00,
2013-05-18 03:15:00,54.0,37.7,30.13,WNW,283,1.0,6.0,54,0.00,,,0.00,Wunderground v.1.15,2013-05-18 10:15:00,
2013-05-18 03:25:00,54.0,37.7,30.14,WNW,284,0.0,6.0,54,0.00,,,0.00,Wunderground v.1.15,2013-05-18 10:25:00,
2013-05-18 03:30:00,53.8,37.5,30.14,WNW,284,0.0,6.0,54,0.00,,,0.00,Wunderground v.1.15,2013-05-18 10:30:00,
2013-05-18 03:35:00,53.4,37.6,30.14,WNW,284,0.0,6.0,55,0.00,,,0.00,Wunderground v.1.15,2013-05-18 10:35:00,
2013-05-18 03:45:00,52.8,37.5,30.14,WNW,284,0.0,6.0,56,0.00,,,0.00,Wunderground v.1.15,2013-05-18 10:45:00,
2013-05-18 03:50:00,52.8,38.9,30.14,WNW,284,0.0,6.0,59,0.00,,,0.00,Wunderground v.1.15,2013-05-18 10:50:00,
2013-05-18 04:00:00,52.3,37.5,30.14,WNW,284,0.0,6.0,57,0.00,,,0.00,Wunderground v.1.15,2013-05-18 11:00:00,
2013-05-18 04:05:00,52.1,38.6,30.14,WNW,284,0.0,6.0,60,0.00,,,0.00,Wunderground v.1.15,2013-05-18 11:05:00,
2013-05-18 04:15:00,52.2,36.0,30.14,West,281,0.0,5.0,54,0.00,,,0.00,Wunderground v.1.15,2013-05-18 11:15:00,
2013-05-18 04:20:00,51.8,35.7,30.14,West,281,1.0,1.0,54,0.00,,,0.00,Wunderground v.1.15,2013-05-18 11:20:00,
2013-05-18 04:25:00,51.8,35.7,30.14,West,281,1.0,1.0,54,0.00,,,0.00,Wunderground v.1.15,2013-05-18 11:25:00,
2013-05-18 04:30:00,51.9,35.8,30.14,West,281,0.0,0.0,54,0.00,,,0.00,Wunderground v.1.15,2013-05-18 11:30:00,
2013-05-18 04:40:00,53.0,36.3,30.14,West,281,0.0,5.0,53,0.00,,,0.00,Wunderground v.1.15,2013-05-18 11:40:00,
2013-05-18 04:45:00,52.6,35.9,30.14,West,281,0.0,5.0,53,0.00,,,0.00,Wunderground v.1.15,2013-05-18 11:45:00,
2013-05-18 04:50:00,52.3,35.7,30.14,West,281,0.0,5.0,53,0.00,,,0.00,Wunderground v.1.15,2013-05-18 11:50:00,
2013-05-18 05:00:00,52.6,35.5,30.15,West,281,0.0,5.0,52,0.00,,,0.00,Wunderground v.1.15,2013-05-18 12:00:00,
2013-05-18 05:05:00,52.1,35.5,30.15,West,281,0.0,5.0,53,0.00,,,0.00,Wunderground v.1.15,2013-05-18 12:05:00,
2013-05-18 05:15:00,52.0,34.9,30.15,West,281,0.0,2.0,52,0.00,,,0.00,Wunderground v.1.15,2013-05-18 12:15:00,
2013-05-18 05:20:00,52.0,34.9,30.15,West,281,0.0,2.0,52,0.00,,,0.00,Wunderground v.1.15,2013-05-18 12:20:00,
2013-05-18 05:30:00,52.2,34.6,30.16,West,281,0.0,2.0,51,0.00,,,0.00,Wunderground v.1.15,2013-05-18 12:30:00,
2013-05-18 05:40:00,53.7,34.5,30.16,West,281,0.0,4.0,48,0.00,,,0.00,Wunderground v.1.15,2013-05-18 12:40:00,
2013-05-18 05:45:00,53.7,34.5,30.16,West,281,0.0,4.0,48,0.00,,,0.00,Wunderground v.1.15,2013-05-18 12:45:00,
2013-05-18 05:50:00,53.3,34.1,30.16,West,281,0.0,4.0,48,0.00,,,0.00,Wunderground v.1.15,2013-05-18 12:50:00,
2013-05-18 06:00:00,52.0,33.4,30.17,West,281,0.0,4.0,49,0.00,,,0.00,Wunderground v.1.15,2013-05-18 13:00:00,
2013-05-18 06:05:00,51.6,33.0,30.17,West,281,0.0,4.0,49,0.00,,,0.00,Wunderground v.1.15,2013-05-18 13:05:00,
2013-05-18 06:15:00,53.1,33.4,30.18,West,281,0.0,0.0,47,0.00,,,0.00,Wunderground v.1.15,2013-05-18 13:15:00,
2013-05-18 06:20:00,53.6,33.3,30.18,West,281,0.0,0.0,46,0.00,,,0.00,Wunderground v.1.15,2013-05-18 13:20:00,
2013-05-18 06:30:00,54.8,33.3,30.18,West,281,0.0,0.0,44,0.00,,,0.00,Wunderground v.1.15,2013-05-18 13:30:00,
2013-05-18 06:40:00,56.2,34.0,30.18,West,280,0.0,2.0,43,0.00,,,0.00,Wunderground v.1.15,2013-05-18 13:40:00,
2013-05-18 06:45:00,57.4,35.1,30.19,West,271,1.0,2.0,43,0.00,,,0.00,Wunderground v.1.15,2013-05-18 13:45:00,
2013-05-18 06:50:00,58.4,34.8,30.19,West,270,1.0,1.0,41,0.00,,,0.00,Wunderground v.1.15,2013-05-18 13:50:00,
2013-05-18 07:00:00,59.8,35.4,30.19,WSW,255,0.0,2.0,40,0.00,,,0.00,Wunderground v.1.15,2013-05-18 14:00:00,
2013-05-18 07:05:00,59.3,35.6,30.19,WSW,255,0.0,5.0,41,0.00,,,0.00,Wunderground v.1.15,2013-05-18 14:05:00,
2013-05-18 07:10:00,58.8,35.1,30.19,WSW,255,0.0,5.0,41,0.00,,,0.00,Wunderground v.1.15,2013-05-18 14:10:00,
2013-05-18 07:20:00,58.7,37.4,30.19,WSW,255,0.0,5.0,45,0.00,,,0.00,Wunderground v.1.15,2013-05-18 14:20:00,
2013-05-18 07:30:00,59.3,37.4,30.19,WSW,255,0.0,5.0,44,0.00,,,0.00,Wunderground v.1.15,2013-05-18 14:30:00,
2013-05-18 07:35:00,59.7,37.7,30.19,WSW,255,0.0,5.0,44,0.00,,,0.00,Wunderground v.1.15,2013-05-18 14:35:00,
2013-05-18 07:45:00,59.7,38.3,30.20,WSW,255,0.0,0.0,45,0.00,,,0.00,Wunderground v.1.15,2013-05-18 14:45:00,
2013-05-18 07:50:00,60.3,37.7,30.20,WSW,255,0.0,0.0,43,0.00,,,0.00,Wunderground v.1.15,2013-05-18 14:50:00,
2013-05-18 08:00:00,61.6,37.7,30.20,WSW,255,0.0,0.0,41,0.00,,,0.00,Wunderground v.1.15,2013-05-18 15:00:00,
2013-05-18 08:10:00,62.6,37.3,30.20,WSW,243,0.0,3.0,39,0.00,,,0.00,Wunderground v.1.15,2013-05-18 15:10:00,
2013-05-18 08:15:00,62.9,36.9,30.21,SW,235,1.0,3.0,38,0.00,,,0.00,Wunderground v.1.15,2013-05-18 15:15:00,
2013-05-18 08:20:00,63.1,36.4,30.21,SSW,210,1.0,3.0,37,0.00,,,0.00,Wunderground v.1.15,2013-05-18 15:20:00,
2013-05-18 08:30:00,63.7,36.9,30.21,South,173,3.0,3.0,37,0.00,,,0.00,Wunderground v.1.15,2013-05-18 15:30:00,
2013-05-18 08:35:00,63.8,36.3,30.21,SSE,152,4.0,4.0,36,0.00,,,0.00,Wunderground v.1.15,2013-05-18 15:35:00,
2013-05-18 08:45:00,64.6,35.6,30.21,SSE,150,4.0,9.0,34,0.00,,,0.00,Wunderground v.1.15,2013-05-18 15:45:00,
2013-05-18 08:50:00,64.8,35.0,30.21,SSE,152,5.0,9.0,33,0.00,,,0.00,Wunderground v.1.15,2013-05-18 15:50:00,
2013-05-18 08:55:00,65.1,34.5,30.22,South,171,6.0,9.0,32,0.00,,,0.00,Wunderground v.1.15,2013-05-18 15:55:00,
2013-05-18 09:05:00,66.1,33.7,30.22,South,169,6.0,14.0,30,0.00,,,0.00,Wunderground v.1.15,2013-05-18 16:05:00,
2013-05-18 09:15:00,66.5,33.2,30.22,South,169,7.0,14.0,29,0.00,,,0.00,Wunderground v.1.15,2013-05-18 16:15:00,
2013-05-18 09:20:00,67.2,33.0,30.22,South,175,6.0,14.0,28,0.00,,,0.00,Wunderground v.1.15,2013-05-18 16:20:00,
2013-05-18 09:30:00,67.7,32.5,30.22,South,190,3.0,14.0,27,0.00,,,0.00,Wunderground v.1.15,2013-05-18 16:30:00,
2013-05-18 09:35:00,67.5,32.3,30.22,South,173,3.0,14.0,27,0.00,,,0.00,Wunderground v.1.15,2013-05-18 16:35:00,
2013-05-18 09:45:00,68.6,33.3,30.22,South,175,3.0,13.0,27,0.00,,,0.00,Wunderground v.1.15,2013-05-18 16:45:00,
2013-05-18 09:50:00,68.5,32.2,30.22,South,175,3.0,3.0,26,0.00,,,0.00,Wunderground v.1.15,2013-05-18 16:50:00,
2013-05-18 09:55:00,68.6,32.3,30.22,South,175,1.0,13.0,26,0.00,,,0.00,Wunderground v.1.15,2013-05-18 16:55:00,
2013-05-18 10:00:00,68.7,32.4,30.22,SSW,194,1.0,1.0,26,0.00,,,0.00,Wunderground v.1.15,2013-05-18 17:00:00,
2013-05-18 10:05:00,69.4,33.0,30.22,SSW,206,1.0,2.0,26,0.00,,,0.00,Wunderground v.1.15,2013-05-18 17:05:00,
2013-05-18 10:15:00,70.4,32.9,30.22,ESE,105,3.0,10.0,25,0.00,,,0.00,Wunderground v.1.15,2013-05-18 17:15:00,
2013-05-18 10:20:00,70.6,32.0,30.22,SE,132,4.0,4.0,24,0.00,,,0.00,Wunderground v.1.15,2013-05-18 17:20:00,
2013-05-18 10:30:00,71.8,32.0,30.22,East,99,2.0,10.0,23,0.00,,,0.00,Wunderground v.1.15,2013-05-18 17:30:00,
2013-05-18 10:35:00,72.5,31.5,30.22,ESE,119,6.0,16.0,22,0.00,,,0.00,Wunderground v.1.15,2013-05-18 17:35:00,
2013-05-18 10:45:00,72.8,29.4,30.22,ESE,114,10.0,16.0,20,0.00,,,0.00,Wunderground v.1.15,2013-05-18 17:45:00,
2013-05-18 10:50:00,72.5,31.5,30.22,ESE,108,10.0,16.0,22,0.00,,,0.00,Wunderground v.1.15,2013-05-18 17:50:00,
2013-05-18 10:55:00,73.1,30.8,30.22,East,100,10.0,16.0,21,0.00,,,0.00,Wunderground v.1.15,2013-05-18 17:55:00,
2013-05-18 11:00:00,73.0,30.7,30.22,East,94,10.0,16.0,21,0.00,,,0.00,Wunderground v.1.15,2013-05-18 18:00:00,
2013-05-18 11:10:00,72.8,28.1,30.22,ENE,65,10.0,19.0,19,0.00,,,0.00,Wunderground v.1.15,2013-05-18 18:10:00,
2013-05-18 11:15:00,72.8,29.4,30.22,East,89,11.0,19.0,20,0.00,,,0.00,Wunderground v.1.15,2013-05-18 18:15:00,
2013-05-18 11:20:00,73.0,29.5,30.22,ENE,65,11.0,11.0,20,0.00,,,0.00,Wunderground v.1.15,2013-05-18 18:20:00,
2013-05-18 11:30:00,73.1,29.6,30.22,ESE,117,9.0,9.0,20,0.00,,,0.00,Wunderground v.1.15,2013-05-18 18:30:00,
2013-05-18 11:35:00,73.8,31.4,30.22,SSE,147,9.0,21.0,21,0.00,,,0.00,Wunderground v.1.15,2013-05-18 18:35:00,
2013-05-18 11:45:00,73.7,31.3,30.22,East,84,10.0,11.0,21,0.00,,,0.00,Wunderground v.1.15,2013-05-18 18:45:00,
2013-05-18 11:50:00,74.2,30.5,30.22,ESE,108,10.0,10.0,20,0.00,,,0.00,Wunderground v.1.15,2013-05-18 18:50:00,
2013-05-18 11:55:00,74.0,30.4,30.22,ESE,108,10.0,14.0,20,0.00,,,0.00,Wunderground v.1.15,2013-05-18 18:55:00,
2013-05-18 12:05:00,73.9,29.0,30.22,ESE,114,10.0,18.0,19,0.00,,,0.00,Wunderground v.1.15,2013-05-18 19:05:00,
2013-05-18 12:10:00,74.1,27.9,30.22,East,84,10.0,18.0,18,0.00,,,0.00,Wunderground v.1.15,2013-05-18 19:10:00,
2013-05-18 12:20:00,74.5,28.2,30.22,East,94,10.0,18.0,18,0.00,,,0.00,Wunderground v.1.15,2013-05-18 19:20:00,
2013-05-18 12:30:00,74.5,28.2,30.22,ESE,111,9.0,9.0,18,0.00,,,0.00,Wunderground v.1.15,2013-05-18 19:30:00,
2013-05-18 12:35:00,74.5,29.5,30.22,SE,135,8.0,14.0,19,0.00,,,0.00,Wunderground v.1.15,2013-05-18 19:35:00,
2013-05-18 12:45:00,75.3,30.2,30.21,ESE,111,8.0,21.0,19,0.00,,,0.00,Wunderground v.1.15,2013-05-18 19:45:00,
2013-05-18 12:50:00,76.0,29.4,30.22,ESE,109,8.0,8.0,18,0.00,,,0.00,Wunderground v.1.15,2013-05-18 19:50:00,
2013-05-18 12:55:00,74.8,27.0,30.21,East,84,9.0,9.0,17,0.00,,,0.00,Wunderground v.1.15,2013-05-18 19:55:00,
2013-05-18 13:00:00,75.0,25.7,30.21,SE,126,9.0,9.0,16,0.00,,,0.00,Wunderground v.1.15,2013-05-18 20:00:00,
2013-05-18 13:05:00,75.8,26.4,30.21,ESE,111,8.0,17.0,16,0.00,,,0.00,Wunderground v.1.15,2013-05-18 20:05:00,
2013-05-18 13:15:00,75.2,28.8,30.20,SE,138,7.0,17.0,18,0.00,,,0.00,Wunderground v.1.15,2013-05-18 20:15:00,
2013-05-18 13:20:00,75.7,29.2,30.20,South,175,8.0,17.0,18,0.00,,,0.00,Wunderground v.1.15,2013-05-18 20:20:00,
2013-05-18 13:30:00,76.3,28.3,30.20,SSE,149,6.0,17.0,17,0.00,,,0.00,Wunderground v.1.15,2013-05-18 20:30:00,
2013-05-18 13:40:00,76.7,28.6,30.20,East,89,7.0,17.0,17,0.00,,,0.00,Wunderground v.1.15,2013-05-18 20:40:00,
2013-05-18 13:50:00,76.3,28.3,30.20,SE,127,6.0,6.0,17,0.00,,,0.00,Wunderground v.1.15,2013-05-18 20:50:00,
2013-05-18 13:55:00,76.5,28.4,30.20,ESE,119,4.0,17.0,17,0.00,,,0.00,Wunderground v.1.15,2013-05-18 20:55:00,
2013-05-18 14:00:00,76.8,28.7,30.20,South,170,4.0,4.0,17,0.00,,,0.00,Wunderground v.1.15,2013-05-18 21:00:00,
2013-05-18 14:10:00,77.6,29.3,30.19,ESE,104,4.0,14.0,17,0.00,,,0.00,Wunderground v.1.15,2013-05-18 21:10:00,
2013-05-18 14:15:00,77.4,29.1,30.20,ENE,75,5.0,14.0,17,0.00,,,0.00,Wunderground v.1.15,2013-05-18 21:15:00,
2013-05-18 14:20:00,77.4,29.1,30.20,ESE,106,7.0,14.0,17,0.00,,,0.00,Wunderground v.1.15,2013-05-18 21:20:00,
2013-05-18 14:30:00,77.4,29.1,30.20,East,84,6.0,6.0,17,0.00,,,0.00,Wunderground v.1.15,2013-05-18 21:30:00,
2013-05-18 14:35:00,76.9,30.1,30.20,ESE,120,6.0,14.0,18,0.00,,,0.00,Wunderground v.1.15,2013-05-18 21:35:00,
2013-05-18 14:40:00,77.2,30.4,30.19,East,98,3.0,3.0,18,0.00,,,0.00,Wunderground v.1.15,2013-05-18 21:40:00,
2013-05-18 14:50:00,77.6,29.3,30.19,WSW,246,2.0,2.0,17,0.00,,,0.00,Wunderground v.1.15,2013-05-18 21:50:00,
2013-05-18 15:00:00,78.8,28.8,30.18,West,275,1.0,14.0,16,0.00,,,0.00,Wunderground v.1.15,2013-05-18 22:00:00,
2013-05-18 15:05:00,78.9,28.9,30.19,SW,223,1.0,14.0,16,0.00,,,0.00,Wunderground v.1.15,2013-05-18 22:05:00,
2013-05-18 15:15:00,79.5,29.4,30.19,SE,141,2.0,7.0,16,0.00,,,0.00,Wunderground v.1.15,2013-05-18 22:15:00,
2013-05-18 15:20:00,78.5,27.0,30.18,SE,146,4.0,8.0,15,0.00,,,0.00,Wunderground v.1.15,2013-05-18 22:20:00,
2013-05-18 15:30:00,78.9,27.3,30.18,South,189,2.0,2.0,15,0.00,,,0.00,Wunderground v.1.15,2013-05-18 22:30:00,
2013-05-18 15:35:00,78.9,31.8,30.17,SE,146,2.0,5.0,18,0.00,,,0.00,Wunderground v.1.15,2013-05-18 22:35:00,
2013-05-18 15:45:00,79.3,37.1,30.18,NNE,13,4.0,10.0,22,0.00,,,0.00,Wunderground v.1.15,2013-05-18 22:45:00,
2013-05-18 15:50:00,79.3,37.1,30.17,North,4,4.0,4.0,22,0.00,,,0.00,Wunderground v.1.15,2013-05-18 22:50:00,
2013-05-18 16:00:00,78.1,38.4,30.17,NNW,329,7.0,16.0,24,0.00,,,0.00,Wunderground v.1.15,2013-05-18 23:00:00,
2013-05-18 16:05:00,77.8,37.0,30.17,NNW,338,9.0,18.0,23,0.00,,,0.00,Wunderground v.1.15,2013-05-18 23:05:00,
2013-05-18 16:15:00,78.7,36.6,30.17,NW,309,9.0,18.0,22,0.00,,,0.00,Wunderground v.1.15,2013-05-18 23:15:00,
2013-05-18 16:20:00,78.7,39.9,30.17,NNW,329,9.0,9.0,25,0.00,,,0.00,Wunderground v.1.15,2013-05-18 23:20:00,
2013-05-18 16:30:00,78.3,39.6,30.17,NNW,331,9.0,9.0,25,0.00,,,0.00,Wunderground v.1.15,2013-05-18 23:30:00,
2013-05-18 16:35:00,78.9,39.0,30.17,WNW,289,8.0,16.0,24,0.00,,,0.00,Wunderground v.1.15,2013-05-18 23:35:00,
2013-05-18 16:40:00,79.1,38.1,30.17,NW,318,7.0,16.0,23,0.00,,,0.00,Wunderground v.1.15,2013-05-18 23:40:00,
2013-05-18 16:50:00,78.2,39.5,30.17,North,352,8.0,8.0,25,0.00,,,0.00,Wunderground v.1.15,2013-05-18 23:50:00,
2013-05-18 16:55:00,77.8,38.1,30.17,NNW,337,9.0,10.0,24,0.00,,,0.00,Wunderground v.1.15,2013-05-18 23:55:00,
2013-05-18 17:00:00,77.7,38.0,30.16,NW,310,9.0,9.0,24,0.00,,,0.00,Wunderground v.1.15,2013-05-19 00:00:00,
2013-05-18 17:10:00,77.4,38.8,30.16,NW,309,8.0,15.0,25,0.00,,,0.00,Wunderground v.1.15,2013-05-19 00:10:00,
2013-05-18 17:15:00,77.6,39.0,30.17,NW,308,9.0,15.0,25,0.00,,,0.00,Wunderground v.1.15,2013-05-19 00:15:00,
2013-05-18 17:20:00,77.3,39.7,30.16,NW,325,9.0,9.0,26,0.00,,,0.00,Wunderground v.1.15,2013-05-19 00:20:00,
2013-05-18 17:30:00,77.6,39.0,30.16,North,351,7.0,15.0,25,0.00,,,0.00,Wunderground v.1.15,2013-05-19 00:30:00,
2013-05-18 17:35:00,77.2,38.6,30.16,NNW,327,9.0,18.0,25,0.00,,,0.00,Wunderground v.1.15,2013-05-19 00:35:00,
2013-05-18 17:45:00,77.1,37.5,30.16,NNW,335,8.0,18.0,24,0.00,,,0.00,Wunderground v.1.15,2013-05-19 00:45:00,
2013-05-18 17:50:00,77.0,38.5,30.16,NW,310,8.0,8.0,25,0.00,,,0.00,Wunderground v.1.15,2013-05-19 00:50:00,
2013-05-18 18:00:00,76.5,39.0,30.15,NNW,333,9.0,18.0,26,0.00,,,0.00,Wunderground v.1.15,2013-05-19 01:00:00,
2013-05-18 18:05:00,76.2,38.8,30.16,WNW,291,10.0,18.0,26,0.00,,,0.00,Wunderground v.1.15,2013-05-19 01:05:00,
2013-05-18 18:15:00,76.2,38.8,30.16,North,352,7.0,17.0,26,0.00,,,0.00,Wunderground v.1.15,2013-05-19 01:15:00,
2013-05-18 18:20:00,76.0,39.6,30.16,NW,322,8.0,17.0,27,0.00,,,0.00,Wunderground v.1.15,2013-05-19 01:20:00,
2013-05-18 18:30:00,75.7,41.2,30.16,NW,310,8.0,17.0,29,0.00,,,0.00,Wunderground v.1.15,2013-05-19 01:30:00,
2013-05-18 18:35:00,75.0,41.5,30.16,NNW,334,8.0,17.0,30,0.00,,,0.00,Wunderground v.1.15,2013-05-19 01:35:00,
2013-05-18 18:40:00,74.8,41.3,30.16,NNW,331,9.0,9.0,30,0.00,,,0.00,Wunderground v.1.15,2013-05-19 01:40:00,
2013-05-18 18:50:00,74.4,42.6,30.16,WNW,299,8.0,8.0,32,0.00,,,0.00,Wunderground v.1.15,2013-05-19 01:50:00,
2013-05-18 18:55:00,74.4,42.6,30.16,NW,308,6.0,17.0,32,0.00,,,0.00,Wunderground v.1.15,2013-05-19 01:55:00,
2013-05-18 19:00:00,74.3,43.3,30.16,NW,306,5.0,5.0,33,0.00,,,0.00,Wunderground v.1.15,2013-05-19 02:00:00,
2013-05-18 19:05:00,74.2,43.2,30.17,NW,317,4.0,6.0,33,0.00,,,0.00,Wunderground v.1.15,2013-05-19 02:05:00,
2013-05-18 19:15:00,73.5,44.2,30.16,NNW,331,6.0,18.0,35,0.00,,,0.00,Wunderground v.1.15,2013-05-19 02:15:00,
2013-05-18 19:20:00,72.8,44.3,30.17,NW,324,6.0,18.0,36,0.00,,,0.00,Wunderground v.1.15,2013-05-19 02:20:00,
2013-05-18 19:30:00,71.9,44.2,30.17,NW,310,5.0,5.0,37,0.00,,,0.00,Wunderground v.1.15,2013-05-19 02:30:00,
2013-05-18 19:35:00,71.5,43.8,30.16,NW,305,4.0,11.0,37,0.00,,,0.00,Wunderground v.1.15,2013-05-19 02:35:00,
2013-05-18 19:45:00,71.2,42.9,30.16,NW,305,1.0,11.0,36,0.00,,,0.00,Wunderground v.1.15,2013-05-19 02:45:00,
2013-05-18 19:50:00,71.0,44.1,30.17,North,4,0.0,11.0,38,0.00,,,0.00,Wunderground v.1.15,2013-05-19 02:50:00,
2013-05-18 20:00:00,70.4,44.3,30.17,North,10,1.0,1.0,39,0.00,,,0.00,Wunderground v.1.15,2013-05-19 03:00:00,
2013-05-18 20:05:00,70.0,43.9,30.17,North,10,0.0,5.0,39,0.00,,,0.00,Wunderground v.1.15,2013-05-19 03:05:00,
2013-05-18 20:15:00,69.2,44.5,30.16,North,10,0.0,5.0,41,0.00,,,0.00,Wunderground v.1.15,2013-05-19 03:15:00,
2013-05-18 20:20:00,68.9,44.2,30.17,North,10,0.0,5.0,41,0.00,,,0.00,Wunderground v.1.15,2013-05-19 03:20:00,
2013-05-18 20:25:00,68.6,44.6,30.17,North,10,0.0,5.0,42,0.00,,,0.00,Wunderground v.1.15,2013-05-19 03:25:00,
2013-05-18 20:35:00,68.2,44.8,30.17,North,356,1.0,6.0,43,0.00,,,0.00,Wunderground v.1.15,2013-05-19 03:35:00,
2013-05-18 20:40:00,68.2,44.8,30.17,NNW,348,1.0,1.0,43,0.00,,,0.00,Wunderground v.1.15,2013-05-19 03:40:00,
2013-05-18 20:45:00,68.1,44.1,30.16,NNW,348,1.0,4.0,42,0.00,,,0.00,Wunderground v.1.15,2013-05-19 03:45:00,
2013-05-18 20:55:00,67.8,44.5,30.17,NNW,348,1.0,6.0,43,0.00,,,0.00,Wunderground v.1.15,2013-05-19 03:55:00,
2013-05-18 21:00:00,67.6,44.3,30.17,NNW,348,0.0,6.0,43,0.00,,,0.00,Wunderground v.1.15,2013-05-19 04:00:00,
2013-05-18 21:05:00,67.3,44.0,30.17,NNW,348,0.0,8.0,43,0.00,,,0.00,Wunderground v.1.15,2013-05-19 04:05:00,
2013-05-18 21:10:00,67.0,43.8,30.17,NNW,348,0.0,8.0,43,0.00,,,0.00,Wunderground v.1.15,2013-05-19 04:10:00,
2013-05-18 21:15:00,66.6,44.0,30.17,NNW,348,0.0,8.0,44,0.00,,,0.00,Wunderground v.1.15,2013-05-19 04:15:00,
2013-05-18 21:20:00,66.4,43.8,30.17,NNW,348,0.0,8.0,44,0.00,,,0.00,Wunderground v.1.15,2013-05-19 04:20:00,
2013-05-18 21:25:00,66.2,43.6,30.17,NNW,348,0.0,8.0,44,0.00,,,0.00,Wunderground v.1.15,2013-05-19 04:25:00,
2013-05-18 21:30:00,66.1,43.5,30.17,NNW,348,0.0,8.0,44,0.00,,,0.00,Wunderground v.1.15,2013-05-19 04:30:00,
2013-05-18 21:35:00,66.0,42.9,30.17,NNW,348,0.0,8.0,43,0.00,,,0.00,Wunderground v.1.15,2013-05-19 04:35:00,
2013-05-18 21:40:00,66.2,41.2,30.17,NNW,348,0.0,0.0,40,0.00,,,0.00,Wunderground v.1.15,2013-05-19 04:40:00,
2013-05-18 21:45:00,66.3,41.9,30.17,NNW,348,0.0,0.0,41,0.00,,,0.00,Wunderground v.1.15,2013-05-19 04:45:00,
2013-05-18 21:50:00,66.6,40.2,30.17,NNW,348,0.0,0.0,38,0.00,,,0.00,Wunderground v.1.15,2013-05-19 04:50:00,
2013-05-18 22:00:00,66.9,41.1,30.17,NNW,348,0.0,0.0,39,0.00,,,0.00,Wunderground v.1.15,2013-05-19 05:00:00,
2013-05-18 22:05:00,66.5,40.8,30.17,NNW,348,0.0,0.0,39,0.00,,,0.00,Wunderground v.1.15,2013-05-19 05:05:00,
2013-05-18 22:15:00,65.9,41.5,30.17,NNW,348,0.0,0.0,41,0.00,,,0.00,Wunderground v.1.15,2013-05-19 05:15:00,
2013-05-18 22:20:00,66.0,41.0,30.17,NNW,348,0.0,0.0,40,0.00,,,0.00,Wunderground v.1.15,2013-05-19 05:20:00,
2013-05-18 22:30:00,66.1,39.7,30.16,NNW,348,0.0,0.0,38,0.00,,,0.00,Wunderground v.1.15,2013-05-19 05:30:00,
2013-05-18 22:35:00,65.9,39.6,30.16,NNW,348,0.0,0.0,38,0.00,,,0.00,Wunderground v.1.15,2013-05-19 05:35:00,
2013-05-18 22:45:00,65.8,40.8,30.16,NNW,348,0.0,0.0,40,0.00,,,0.00,Wunderground v.1.15,2013-05-19 05:45:00,
2013-05-18 22:50:00,66.8,41.0,30.16,WNW,303,1.0,2.0,39,0.00,,,0.00,Wunderground v.1.15,2013-05-19 05:50:00,
2013-05-18 23:00:00,67.1,40.6,30.16,NW,304,1.0,1.0,38,0.00,,,0.00,Wunderground v.1.15,2013-05-19 06:00:00,
2013-05-18 23:05:00,66.1,40.4,30.16,NW,304,0.0,9.0,39,0.00,,,0.00,Wunderground v.1.15,2013-05-19 06:05:00,
2013-05-18 23:10:00,65.6,40.6,30.16,NW,304,0.0,9.0,40,0.00,,,0.00,Wunderground v.1.15,2013-05-19 06:10:00,
2013-05-18 23:20:00,65.0,40.7,30.16,NW,304,0.0,9.0,41,0.00,,,0.00,Wunderground v.1.15,2013-05-19 06:20:00,
2013-05-18 23:30:00,65.1,40.8,30.16,NW,304,0.0,9.0,41,0.00,,,0.00,Wunderground v.1.15,2013-05-19 06:30:00,
2013-05-18 23:35:00,65.2,41.5,30.16,NW,304,0.0,9.0,42,0.00,,,0.00,Wunderground v.1.15,2013-05-19 06:35:00,
2013-05-18 23:40:00,64.9,41.9,30.16,NW,304,0.0,0.0,43,0.00,,,0.00,Wunderground v.1.15,2013-05-19 06:40:00,
2013-05-18 23:50:00,64.3,41.9,30.16,NW,304,0.0,0.0,44,0.00,,,0.00,Wunderground v.1.15,2013-05-19 06:50:00,